sensor_id;sensor_type;location;lat;lon;timestamp;P1;durP1;ratioP1;P2;durP2;ratioP2
77453;SDS011;66538;53.150;18.160;2023-03-01T00:00:06;40.40;;;17.60;;
77453;SDS011;66538;53.150;18.160;2023-03-01T00:02:57;32.90;;;10.90;;
77453;SDS011;66538;53.150;18.160;2023-03-01T00:05:24;48.50;;;18.20;;
77453;SDS011;66538;53.150;18.160;2023-03-01T00:07:54;56.30;;;21.80;;
77453;SDS011;66538;53.150;18.160;2023-03-01T00:10:20;45.20;;;18.00;;
77453;SDS011;66538;53.150;18.160;2023-03-01T00:12:47;51.90;;;20.70;;
77453;SDS011;66538;53.150;18.160;2023-03-01T00:15:14;51.20;;;20.90;;
77453;SDS011;66538;53.150;18.160;2023-03-01T00:17:40;52.50;;;20.70;;
77453;SDS011;66538;53.150;18.160;2023-03-01T00:20:07;48.40;;;23.60;;
77453;SDS011;66538;53.150;18.160;2023-03-01T00:22:36;42.00;;;18.80;;
77453;SDS011;66538;53.150;18.160;2023-03-01T00:25:03;42.10;;;17.70;;
77453;SDS011;66538;53.150;18.160;2023-03-01T00:27:30;44.20;;;17.30;;
77453;SDS011;66538;53.150;18.160;2023-03-01T00:29:57;36.00;;;15.60;;
77453;SDS011;66538;53.150;18.160;2023-03-01T00:32:24;41.10;;;17.10;;
77453;SDS011;66538;53.150;18.160;2023-03-01T00:34:51;43.00;;;18.00;;
77453;SDS011;66538;53.150;18.160;2023-03-01T00:39:47;46.10;;;18.50;;
77453;SDS011;66538;53.150;18.160;2023-03-01T00:42:15;46.20;;;18.40;;
77453;SDS011;66538;53.150;18.160;2023-03-01T00:44:42;42.80;;;17.80;;
77453;SDS011;66538;53.150;18.160;2023-03-01T00:47:10;38.80;;;15.70;;
77453;SDS011;66538;53.150;18.160;2023-03-01T00:49:36;51.60;;;21.10;;
77453;SDS011;66538;53.150;18.160;2023-03-01T00:52:03;55.30;;;21.90;;
77453;SDS011;66538;53.150;18.160;2023-03-01T00:54:30;57.10;;;22.70;;
77453;SDS011;66538;53.150;18.160;2023-03-01T00:56:56;50.80;;;21.00;;
77453;SDS011;66538;53.150;18.160;2023-03-01T00:59:23;45.20;;;17.80;;
77453;SDS011;66538;53.150;18.160;2023-03-01T01:01:50;40.00;;;16.80;;
77453;SDS011;66538;53.150;18.160;2023-03-01T01:04:16;38.60;;;15.20;;
77453;SDS011;66538;53.150;18.160;2023-03-01T01:06:44;34.20;;;13.90;;
77453;SDS011;66538;53.150;18.160;2023-03-01T01:09:13;40.30;;;15.20;;
77453;SDS011;66538;53.150;18.160;2023-03-01T01:11:46;29.50;;;12.50;;
77453;SDS011;66538;53.150;18.160;2023-03-01T01:14:15;38.30;;;17.30;;
77453;SDS011;66538;53.150;18.160;2023-03-01T01:16:43;35.50;;;14.10;;
77453;SDS011;66538;53.150;18.160;2023-03-01T01:19:10;21.70;;;8.80;;
77453;SDS011;66538;53.150;18.160;2023-03-01T01:21:38;28.70;;;11.40;;
77453;SDS011;66538;53.150;18.160;2023-03-01T01:24:04;35.00;;;13.90;;
77453;SDS011;66538;53.150;18.160;2023-03-01T01:26:32;46.10;;;18.90;;
77453;SDS011;66538;53.150;18.160;2023-03-01T01:29:02;29.20;;;12.90;;
77453;SDS011;66538;53.150;18.160;2023-03-01T01:31:31;36.30;;;16.10;;
77453;SDS011;66538;53.150;18.160;2023-03-01T01:33:59;33.80;;;14.80;;
77453;SDS011;66538;53.150;18.160;2023-03-01T01:36:27;32.90;;;13.50;;
77453;SDS011;66538;53.150;18.160;2023-03-01T01:38:54;29.60;;;11.80;;
77453;SDS011;66538;53.150;18.160;2023-03-01T01:41:22;33.10;;;11.20;;
77453;SDS011;66538;53.150;18.160;2023-03-01T01:46:37;32.00;;;15.10;;
77453;SDS011;66538;53.150;18.160;2023-03-01T01:49:07;42.50;;;17.30;;
77453;SDS011;66538;53.150;18.160;2023-03-01T01:51:44;38.70;;;15.60;;
77453;SDS011;66538;53.150;18.160;2023-03-01T01:54:19;32.50;;;13.50;;
77453;SDS011;66538;53.150;18.160;2023-03-01T01:56:54;35.70;;;14.90;;
77453;SDS011;66538;53.150;18.160;2023-03-01T01:59:25;36.90;;;13.70;;
77453;SDS011;66538;53.150;18.160;2023-03-01T02:01:54;42.30;;;17.20;;
77453;SDS011;66538;53.150;18.160;2023-03-01T02:04:22;49.80;;;20.00;;
77453;SDS011;66538;53.150;18.160;2023-03-01T02:06:51;45.20;;;17.00;;
77453;SDS011;66538;53.150;18.160;2023-03-01T02:09:24;45.10;;;17.70;;
77453;SDS011;66538;53.150;18.160;2023-03-01T02:11:51;36.80;;;13.90;;
77453;SDS011;66538;53.150;18.160;2023-03-01T02:14:19;31.80;;;14.30;;
77453;SDS011;66538;53.150;18.160;2023-03-01T02:16:46;26.80;;;12.20;;
77453;SDS011;66538;53.150;18.160;2023-03-01T02:19:16;38.30;;;15.00;;
77453;SDS011;66538;53.150;18.160;2023-03-01T02:22:00;35.40;;;12.80;;
77453;SDS011;66538;53.150;18.160;2023-03-01T02:24:38;35.40;;;13.10;;
77453;SDS011;66538;53.150;18.160;2023-03-01T02:27:15;33.30;;;14.70;;
77453;SDS011;66538;53.150;18.160;2023-03-01T02:29:44;37.00;;;14.90;;
77453;SDS011;66538;53.150;18.160;2023-03-01T02:32:10;42.10;;;16.70;;
77453;SDS011;66538;53.150;18.160;2023-03-01T02:34:39;27.60;;;13.20;;
77453;SDS011;66538;53.150;18.160;2023-03-01T02:37:08;38.60;;;15.80;;
77453;SDS011;66538;53.150;18.160;2023-03-01T02:39:45;39.10;;;16.00;;
77453;SDS011;66538;53.150;18.160;2023-03-01T02:42:16;38.00;;;15.60;;
77453;SDS011;66538;53.150;18.160;2023-03-01T02:44:49;34.80;;;13.60;;
77453;SDS011;66538;53.150;18.160;2023-03-01T02:47:16;28.10;;;10.40;;
77453;SDS011;66538;53.150;18.160;2023-03-01T02:49:43;32.50;;;13.80;;
77453;SDS011;66538;53.150;18.160;2023-03-01T02:55:06;17.30;;;7.50;;
77453;SDS011;66538;53.150;18.160;2023-03-01T02:57:34;20.50;;;9.70;;
77453;SDS011;66538;53.150;18.160;2023-03-01T03:00:05;21.90;;;10.20;;
77453;SDS011;66538;53.150;18.160;2023-03-01T03:02:35;28.10;;;12.30;;
77453;SDS011;66538;53.150;18.160;2023-03-01T03:05:09;35.70;;;13.50;;
77453;SDS011;66538;53.150;18.160;2023-03-01T03:07:39;35.00;;;17.60;;
77453;SDS011;66538;53.150;18.160;2023-03-01T03:10:09;36.60;;;15.00;;
77453;SDS011;66538;53.150;18.160;2023-03-01T03:12:39;20.70;;;8.80;;
77453;SDS011;66538;53.150;18.160;2023-03-01T03:15:08;31.50;;;14.30;;
77453;SDS011;66538;53.150;18.160;2023-03-01T03:17:36;27.20;;;12.00;;
77453;SDS011;66538;53.150;18.160;2023-03-01T03:20:03;28.40;;;11.60;;
77453;SDS011;66538;53.150;18.160;2023-03-01T03:22:32;30.60;;;13.00;;
77453;SDS011;66538;53.150;18.160;2023-03-01T03:25:00;18.90;;;9.20;;
77453;SDS011;66538;53.150;18.160;2023-03-01T03:27:27;36.30;;;13.20;;
77453;SDS011;66538;53.150;18.160;2023-03-01T03:29:54;28.50;;;11.50;;
77453;SDS011;66538;53.150;18.160;2023-03-01T03:32:21;31.20;;;12.40;;
77453;SDS011;66538;53.150;18.160;2023-03-01T03:34:47;16.10;;;6.60;;
77453;SDS011;66538;53.150;18.160;2023-03-01T03:37:15;35.60;;;14.50;;
77453;SDS011;66538;53.150;18.160;2023-03-01T03:40:00;31.20;;;13.50;;
77453;SDS011;66538;53.150;18.160;2023-03-01T03:42:27;29.60;;;11.90;;
77453;SDS011;66538;53.150;18.160;2023-03-01T03:44:54;32.30;;;14.30;;
77453;SDS011;66538;53.150;18.160;2023-03-01T03:47:20;21.90;;;10.30;;
77453;SDS011;66538;53.150;18.160;2023-03-01T03:49:47;30.20;;;14.00;;
77453;SDS011;66538;53.150;18.160;2023-03-01T03:52:13;30.90;;;12.30;;
77453;SDS011;66538;53.150;18.160;2023-03-01T03:54:40;31.20;;;12.60;;
77453;SDS011;66538;53.150;18.160;2023-03-01T03:57:07;35.40;;;14.30;;
77453;SDS011;66538;53.150;18.160;2023-03-01T03:59:33;24.60;;;11.90;;
77453;SDS011;66538;53.150;18.160;2023-03-01T04:02:00;30.30;;;12.10;;
77453;SDS011;66538;53.150;18.160;2023-03-01T04:04:27;33.20;;;14.40;;
77453;SDS011;66538;53.150;18.160;2023-03-01T04:06:53;37.00;;;15.20;;
77453;SDS011;66538;53.150;18.160;2023-03-01T04:09:20;25.70;;;10.70;;
77453;SDS011;66538;53.150;18.160;2023-03-01T04:11:46;31.20;;;12.20;;
77453;SDS011;66538;53.150;18.160;2023-03-01T04:14:13;34.20;;;13.60;;
77453;SDS011;66538;53.150;18.160;2023-03-01T04:16:40;35.90;;;13.60;;
77453;SDS011;66538;53.150;18.160;2023-03-01T04:19:06;46.40;;;19.50;;
77453;SDS011;66538;53.150;18.160;2023-03-01T04:21:33;25.30;;;11.70;;
77453;SDS011;66538;53.150;18.160;2023-03-01T04:24:00;30.70;;;13.70;;
77453;SDS011;66538;53.150;18.160;2023-03-01T04:26:26;35.40;;;13.40;;
77453;SDS011;66538;53.150;18.160;2023-03-01T04:28:53;35.50;;;15.20;;
77453;SDS011;66538;53.150;18.160;2023-03-01T04:31:20;27.80;;;12.10;;
77453;SDS011;66538;53.150;18.160;2023-03-01T04:33:48;28.20;;;11.70;;
77453;SDS011;66538;53.150;18.160;2023-03-01T04:36:18;30.40;;;14.50;;
77453;SDS011;66538;53.150;18.160;2023-03-01T04:38:46;30.80;;;13.30;;
77453;SDS011;66538;53.150;18.160;2023-03-01T04:41:16;29.30;;;14.30;;
77453;SDS011;66538;53.150;18.160;2023-03-01T04:43:45;37.80;;;14.90;;
77453;SDS011;66538;53.150;18.160;2023-03-01T04:46:13;31.80;;;13.20;;
77453;SDS011;66538;53.150;18.160;2023-03-01T04:48:42;35.70;;;14.70;;
77453;SDS011;66538;53.150;18.160;2023-03-01T04:53:41;29.90;;;11.70;;
77453;SDS011;66538;53.150;18.160;2023-03-01T04:56:08;34.80;;;15.70;;
77453;SDS011;66538;53.150;18.160;2023-03-01T04:58:35;33.30;;;14.10;;
77453;SDS011;66538;53.150;18.160;2023-03-01T05:01:07;30.70;;;13.40;;
77453;SDS011;66538;53.150;18.160;2023-03-01T05:03:44;30.70;;;12.90;;
77453;SDS011;66538;53.150;18.160;2023-03-01T05:06:16;34.90;;;13.00;;
77453;SDS011;66538;53.150;18.160;2023-03-01T05:08:44;31.80;;;12.70;;
77453;SDS011;66538;53.150;18.160;2023-03-01T05:11:11;30.40;;;12.60;;
77453;SDS011;66538;53.150;18.160;2023-03-01T05:13:38;22.50;;;9.90;;
77453;SDS011;66538;53.150;18.160;2023-03-01T05:16:06;27.10;;;11.90;;
77453;SDS011;66538;53.150;18.160;2023-03-01T05:18:37;25.80;;;10.60;;
77453;SDS011;66538;53.150;18.160;2023-03-01T05:21:08;26.80;;;11.50;;
77453;SDS011;66538;53.150;18.160;2023-03-01T05:23:36;29.20;;;12.00;;
77453;SDS011;66538;53.150;18.160;2023-03-01T05:26:04;23.10;;;9.60;;
77453;SDS011;66538;53.150;18.160;2023-03-01T05:28:32;28.10;;;11.10;;
77453;SDS011;66538;53.150;18.160;2023-03-01T05:31:00;39.90;;;17.00;;
77453;SDS011;66538;53.150;18.160;2023-03-01T05:33:26;46.40;;;17.90;;
77453;SDS011;66538;53.150;18.160;2023-03-01T05:35:54;39.30;;;15.90;;
77453;SDS011;66538;53.150;18.160;2023-03-01T05:38:20;37.30;;;14.70;;
77453;SDS011;66538;53.150;18.160;2023-03-01T05:40:48;32.90;;;14.10;;
77453;SDS011;66538;53.150;18.160;2023-03-01T05:43:15;19.60;;;10.10;;
77453;SDS011;66538;53.150;18.160;2023-03-01T05:45:43;22.80;;;11.80;;
77453;SDS011;66538;53.150;18.160;2023-03-01T05:48:11;27.20;;;12.40;;
77453;SDS011;66538;53.150;18.160;2023-03-01T05:50:40;27.90;;;12.10;;
77453;SDS011;66538;53.150;18.160;2023-03-01T05:53:15;22.50;;;10.20;;
77453;SDS011;66538;53.150;18.160;2023-03-01T05:55:43;26.70;;;13.00;;
77453;SDS011;66538;53.150;18.160;2023-03-01T05:58:11;29.00;;;12.70;;
77453;SDS011;66538;53.150;18.160;2023-03-01T06:00:43;29.40;;;11.60;;
77453;SDS011;66538;53.150;18.160;2023-03-01T06:03:11;32.70;;;14.30;;
77453;SDS011;66538;53.150;18.160;2023-03-01T06:05:40;31.20;;;11.30;;
77453;SDS011;66538;53.150;18.160;2023-03-01T06:08:08;28.80;;;12.50;;
77453;SDS011;66538;53.150;18.160;2023-03-01T06:10:36;24.80;;;10.50;;
77453;SDS011;66538;53.150;18.160;2023-03-01T06:13:03;31.80;;;13.10;;
77453;SDS011;66538;53.150;18.160;2023-03-01T06:15:30;31.60;;;14.30;;
77453;SDS011;66538;53.150;18.160;2023-03-01T06:17:57;34.60;;;14.10;;
77453;SDS011;66538;53.150;18.160;2023-03-01T06:20:24;41.10;;;15.30;;
77453;SDS011;66538;53.150;18.160;2023-03-01T06:22:53;35.70;;;15.00;;
77453;SDS011;66538;53.150;18.160;2023-03-01T06:25:21;33.40;;;13.70;;
77453;SDS011;66538;53.150;18.160;2023-03-01T06:30:17;30.60;;;12.70;;
77453;SDS011;66538;53.150;18.160;2023-03-01T06:35:13;32.90;;;14.30;;
77453;SDS011;66538;53.150;18.160;2023-03-01T06:37:41;19.70;;;10.00;;
77453;SDS011;66538;53.150;18.160;2023-03-01T06:40:08;17.70;;;8.00;;
77453;SDS011;66538;53.150;18.160;2023-03-01T06:42:38;28.90;;;11.80;;
77453;SDS011;66538;53.150;18.160;2023-03-01T06:45:06;30.30;;;11.50;;
77453;SDS011;66538;53.150;18.160;2023-03-01T06:47:34;20.90;;;9.50;;
77453;SDS011;66538;53.150;18.160;2023-03-01T06:50:01;29.70;;;13.40;;
77453;SDS011;66538;53.150;18.160;2023-03-01T06:52:29;31.40;;;14.30;;
77453;SDS011;66538;53.150;18.160;2023-03-01T06:54:56;24.00;;;11.30;;
77453;SDS011;66538;53.150;18.160;2023-03-01T06:57:22;20.60;;;9.50;;
77453;SDS011;66538;53.150;18.160;2023-03-01T06:59:49;24.10;;;11.40;;
77453;SDS011;66538;53.150;18.160;2023-03-01T07:02:15;28.40;;;12.40;;
77453;SDS011;66538;53.150;18.160;2023-03-01T07:04:43;22.70;;;11.70;;
77453;SDS011;66538;53.150;18.160;2023-03-01T07:07:09;21.00;;;9.40;;
77453;SDS011;66538;53.150;18.160;2023-03-01T07:09:36;21.30;;;9.60;;
77453;SDS011;66538;53.150;18.160;2023-03-01T07:12:03;32.30;;;13.70;;
77453;SDS011;66538;53.150;18.160;2023-03-01T07:14:30;23.90;;;10.50;;
77453;SDS011;66538;53.150;18.160;2023-03-01T07:16:56;28.30;;;13.00;;
77453;SDS011;66538;53.150;18.160;2023-03-01T07:19:23;13.80;;;5.90;;
77453;SDS011;66538;53.150;18.160;2023-03-01T07:21:50;24.50;;;10.60;;
77453;SDS011;66538;53.150;18.160;2023-03-01T07:24:16;25.70;;;11.50;;
77453;SDS011;66538;53.150;18.160;2023-03-01T07:26:43;28.20;;;12.70;;
77453;SDS011;66538;53.150;18.160;2023-03-01T07:29:10;27.50;;;12.60;;
77453;SDS011;66538;53.150;18.160;2023-03-01T07:31:37;20.80;;;10.10;;
77453;SDS011;66538;53.150;18.160;2023-03-01T07:34:03;24.40;;;11.10;;
77453;SDS011;66538;53.150;18.160;2023-03-01T07:36:30;32.30;;;12.50;;
77453;SDS011;66538;53.150;18.160;2023-03-01T07:38:57;23.30;;;10.70;;
77453;SDS011;66538;53.150;18.160;2023-03-01T07:41:24;25.10;;;9.90;;
77453;SDS011;66538;53.150;18.160;2023-03-01T07:43:50;24.20;;;10.70;;
77453;SDS011;66538;53.150;18.160;2023-03-01T07:46:17;20.90;;;8.40;;
77453;SDS011;66538;53.150;18.160;2023-03-01T07:48:45;22.00;;;10.40;;
77453;SDS011;66538;53.150;18.160;2023-03-01T07:51:12;18.80;;;9.00;;
77453;SDS011;66538;53.150;18.160;2023-03-01T07:53:39;16.00;;;6.90;;
77453;SDS011;66538;53.150;18.160;2023-03-01T07:56:07;24.00;;;10.10;;
77453;SDS011;66538;53.150;18.160;2023-03-01T07:58:39;23.50;;;9.50;;
77453;SDS011;66538;53.150;18.160;2023-03-01T08:01:09;24.40;;;10.70;;
77453;SDS011;66538;53.150;18.160;2023-03-01T08:03:38;18.20;;;7.50;;
77453;SDS011;66538;53.150;18.160;2023-03-01T08:06:06;17.60;;;8.10;;
77453;SDS011;66538;53.150;18.160;2023-03-01T08:08:35;23.70;;;10.40;;
77453;SDS011;66538;53.150;18.160;2023-03-01T08:11:03;24.10;;;9.70;;
77453;SDS011;66538;53.150;18.160;2023-03-01T08:16:06;17.20;;;8.30;;
77453;SDS011;66538;53.150;18.160;2023-03-01T08:18:34;24.10;;;10.90;;
77453;SDS011;66538;53.150;18.160;2023-03-01T08:21:01;18.00;;;6.90;;
77453;SDS011;66538;53.150;18.160;2023-03-01T08:23:32;16.70;;;9.50;;
77453;SDS011;66538;53.150;18.160;2023-03-01T08:26:10;23.00;;;10.00;;
77453;SDS011;66538;53.150;18.160;2023-03-01T08:28:38;21.70;;;10.80;;
77453;SDS011;66538;53.150;18.160;2023-03-01T08:33:41;28.90;;;11.40;;
77453;SDS011;66538;53.150;18.160;2023-03-01T08:36:08;25.70;;;11.10;;
77453;SDS011;66538;53.150;18.160;2023-03-01T08:38:35;23.30;;;9.30;;
77453;SDS011;66538;53.150;18.160;2023-03-01T08:41:02;23.90;;;11.20;;
77453;SDS011;66538;53.150;18.160;2023-03-01T08:43:30;17.30;;;7.70;;
77453;SDS011;66538;53.150;18.160;2023-03-01T08:45:57;22.80;;;8.20;;
77453;SDS011;66538;53.150;18.160;2023-03-01T08:48:24;23.50;;;10.20;;
77453;SDS011;66538;53.150;18.160;2023-03-01T08:50:51;21.00;;;9.80;;
77453;SDS011;66538;53.150;18.160;2023-03-01T08:53:18;22.40;;;10.30;;
77453;SDS011;66538;53.150;18.160;2023-03-01T08:55:45;20.80;;;9.40;;
77453;SDS011;66538;53.150;18.160;2023-03-01T08:58:12;13.20;;;6.80;;
77453;SDS011;66538;53.150;18.160;2023-03-01T09:00:38;22.30;;;9.60;;
77453;SDS011;66538;53.150;18.160;2023-03-01T09:03:06;25.20;;;11.40;;
77453;SDS011;66538;53.150;18.160;2023-03-01T09:05:33;19.30;;;9.00;;
77453;SDS011;66538;53.150;18.160;2023-03-01T09:08:02;27.10;;;13.40;;
77453;SDS011;66538;53.150;18.160;2023-03-01T09:10:28;14.80;;;6.90;;
77453;SDS011;66538;53.150;18.160;2023-03-01T09:12:55;22.90;;;10.30;;
77453;SDS011;66538;53.150;18.160;2023-03-01T09:15:22;23.00;;;11.60;;
77453;SDS011;66538;53.150;18.160;2023-03-01T09:17:48;21.80;;;9.30;;
77453;SDS011;66538;53.150;18.160;2023-03-01T09:20:15;16.60;;;7.80;;
77453;SDS011;66538;53.150;18.160;2023-03-01T09:22:42;17.00;;;8.00;;
77453;SDS011;66538;53.150;18.160;2023-03-01T09:25:10;23.20;;;9.60;;
77453;SDS011;66538;53.150;18.160;2023-03-01T09:27:36;20.10;;;9.70;;
77453;SDS011;66538;53.150;18.160;2023-03-01T09:30:03;13.20;;;6.40;;
77453;SDS011;66538;53.150;18.160;2023-03-01T09:32:31;21.10;;;9.70;;
77453;SDS011;66538;53.150;18.160;2023-03-01T09:34:57;16.30;;;7.80;;
77453;SDS011;66538;53.150;18.160;2023-03-01T09:37:31;22.40;;;10.40;;
77453;SDS011;66538;53.150;18.160;2023-03-01T09:40:00;19.00;;;8.40;;
77453;SDS011;66538;53.150;18.160;2023-03-01T09:42:27;17.80;;;9.20;;
77453;SDS011;66538;53.150;18.160;2023-03-01T09:44:59;20.70;;;7.50;;
77453;SDS011;66538;53.150;18.160;2023-03-01T09:47:32;17.10;;;7.20;;
77453;SDS011;66538;53.150;18.160;2023-03-01T09:50:14;18.20;;;8.20;;
77453;SDS011;66538;53.150;18.160;2023-03-01T09:55:16;14.10;;;6.40;;
77453;SDS011;66538;53.150;18.160;2023-03-01T09:57:59;17.20;;;7.70;;
77453;SDS011;66538;53.150;18.160;2023-03-01T10:03:12;12.00;;;5.80;;
77453;SDS011;66538;53.150;18.160;2023-03-01T10:05:49;17.50;;;7.40;;
77453;SDS011;66538;53.150;18.160;2023-03-01T10:08:38;12.40;;;6.20;;
77453;SDS011;66538;53.150;18.160;2023-03-01T10:11:19;13.10;;;6.50;;
77453;SDS011;66538;53.150;18.160;2023-03-01T10:13:54;12.40;;;5.40;;
77453;SDS011;66538;53.150;18.160;2023-03-01T10:16:43;12.60;;;6.00;;
77453;SDS011;66538;53.150;18.160;2023-03-01T10:19:21;16.20;;;7.80;;
77453;SDS011;66538;53.150;18.160;2023-03-01T10:22:19;11.00;;;5.60;;
77453;SDS011;66538;53.150;18.160;2023-03-01T10:24:50;10.80;;;5.10;;
77453;SDS011;66538;53.150;18.160;2023-03-01T10:27:21;10.90;;;5.30;;
77453;SDS011;66538;53.150;18.160;2023-03-01T10:32:20;9.70;;;5.10;;
77453;SDS011;66538;53.150;18.160;2023-03-01T10:34:48;18.10;;;7.50;;
77453;SDS011;66538;53.150;18.160;2023-03-01T10:37:15;12.30;;;5.80;;
77453;SDS011;66538;53.150;18.160;2023-03-01T10:39:58;14.00;;;6.80;;
77453;SDS011;66538;53.150;18.160;2023-03-01T10:42:33;13.90;;;6.50;;
77453;SDS011;66538;53.150;18.160;2023-03-01T10:48:10;14.20;;;6.40;;
77453;SDS011;66538;53.150;18.160;2023-03-01T10:50:39;12.30;;;5.70;;
77453;SDS011;66538;53.150;18.160;2023-03-01T10:53:27;19.60;;;7.70;;
77453;SDS011;66538;53.150;18.160;2023-03-01T10:56:07;15.00;;;7.30;;
77453;SDS011;66538;53.150;18.160;2023-03-01T10:58:36;16.70;;;6.50;;
77453;SDS011;66538;53.150;18.160;2023-03-01T11:01:05;11.50;;;4.50;;
77453;SDS011;66538;53.150;18.160;2023-03-01T11:04:14;10.40;;;4.80;;
77453;SDS011;66538;53.150;18.160;2023-03-01T11:11:42;16.30;;;6.70;;
77453;SDS011;66538;53.150;18.160;2023-03-01T11:14:15;13.70;;;5.00;;
77453;SDS011;66538;53.150;18.160;2023-03-01T11:16:45;10.40;;;4.20;;
77453;SDS011;66538;53.150;18.160;2023-03-01T11:19:15;12.50;;;5.10;;
77453;SDS011;66538;53.150;18.160;2023-03-01T11:21:54;8.70;;;4.10;;
77453;SDS011;66538;53.150;18.160;2023-03-01T11:24:30;9.20;;;4.10;;
77453;SDS011;66538;53.150;18.160;2023-03-01T11:26:57;9.40;;;3.90;;
77453;SDS011;66538;53.150;18.160;2023-03-01T11:29:42;7.20;;;3.10;;
77453;SDS011;66538;53.150;18.160;2023-03-01T11:32:13;8.50;;;3.70;;
77453;SDS011;66538;53.150;18.160;2023-03-01T11:34:53;12.50;;;5.50;;
77453;SDS011;66538;53.150;18.160;2023-03-01T11:40:26;12.20;;;4.30;;
77453;SDS011;66538;53.150;18.160;2023-03-01T11:54:15;12.80;;;5.00;;
77453;SDS011;66538;53.150;18.160;2023-03-01T11:59:36;10.10;;;4.70;;
77453;SDS011;66538;53.150;18.160;2023-03-01T12:02:26;14.40;;;5.50;;
77453;SDS011;66538;53.150;18.160;2023-03-01T12:08:04;11.30;;;6.10;;
77453;SDS011;66538;53.150;18.160;2023-03-01T12:16:40;14.40;;;7.40;;
77453;SDS011;66538;53.150;18.160;2023-03-01T12:19:19;8.90;;;4.30;;
77453;SDS011;66538;53.150;18.160;2023-03-01T12:22:44;11.20;;;4.60;;
77453;SDS011;66538;53.150;18.160;2023-03-01T12:25:03;11.10;;;5.70;;
77453;SDS011;66538;53.150;18.160;2023-03-01T12:44:23;12.20;;;6.60;;
77453;SDS011;66538;53.150;18.160;2023-03-01T12:49:59;11.00;;;6.20;;
77453;SDS011;66538;53.150;18.160;2023-03-01T12:52:47;11.20;;;6.30;;
77453;SDS011;66538;53.150;18.160;2023-03-01T12:58:07;12.50;;;6.40;;
77453;SDS011;66538;53.150;18.160;2023-03-01T13:00:50;11.10;;;6.00;;
77453;SDS011;66538;53.150;18.160;2023-03-01T13:06:15;12.30;;;6.70;;
77453;SDS011;66538;53.150;18.160;2023-03-01T13:09:05;11.80;;;6.20;;
77453;SDS011;66538;53.150;18.160;2023-03-01T13:11:41;11.60;;;6.60;;
77453;SDS011;66538;53.150;18.160;2023-03-01T13:16:54;11.90;;;6.60;;
77453;SDS011;66538;53.150;18.160;2023-03-01T13:19:22;11.60;;;6.20;;
77453;SDS011;66538;53.150;18.160;2023-03-01T13:21:51;12.10;;;7.00;;
77453;SDS011;66538;53.150;18.160;2023-03-01T13:24:25;11.30;;;5.90;;
77453;SDS011;66538;53.150;18.160;2023-03-01T13:29:44;11.10;;;6.00;;
77453;SDS011;66538;53.150;18.160;2023-03-01T13:32:24;11.90;;;6.90;;
77453;SDS011;66538;53.150;18.160;2023-03-01T13:34:56;10.20;;;6.10;;
77453;SDS011;66538;53.150;18.160;2023-03-01T13:37:29;12.40;;;7.60;;
77453;SDS011;66538;53.150;18.160;2023-03-01T13:42:44;10.20;;;5.60;;
77453;SDS011;66538;53.150;18.160;2023-03-01T13:45:16;11.70;;;6.40;;
77453;SDS011;66538;53.150;18.160;2023-03-01T13:47:47;11.70;;;7.10;;
77453;SDS011;66538;53.150;18.160;2023-03-01T13:50:20;9.20;;;5.70;;
77453;SDS011;66538;53.150;18.160;2023-03-01T13:52:52;10.60;;;6.00;;
77453;SDS011;66538;53.150;18.160;2023-03-01T14:03:25;10.00;;;6.10;;
77453;SDS011;66538;53.150;18.160;2023-03-01T14:08:38;12.80;;;6.50;;
77453;SDS011;66538;53.150;18.160;2023-03-01T14:14:54;10.10;;;5.70;;
77453;SDS011;66538;53.150;18.160;2023-03-01T14:19:54;11.00;;;7.20;;
77453;SDS011;66538;53.150;18.160;2023-03-01T14:22:28;10.70;;;6.20;;
77453;SDS011;66538;53.150;18.160;2023-03-01T14:24:59;9.80;;;6.40;;
77453;SDS011;66538;53.150;18.160;2023-03-01T14:27:30;10.60;;;6.00;;
77453;SDS011;66538;53.150;18.160;2023-03-01T14:30:04;9.70;;;6.10;;
77453;SDS011;66538;53.150;18.160;2023-03-01T14:32:41;9.80;;;6.70;;
77453;SDS011;66538;53.150;18.160;2023-03-01T14:35:24;10.80;;;6.50;;
77453;SDS011;66538;53.150;18.160;2023-03-01T14:37:52;11.70;;;7.30;;
77453;SDS011;66538;53.150;18.160;2023-03-01T14:40:21;11.50;;;8.10;;
77453;SDS011;66538;53.150;18.160;2023-03-01T14:42:48;12.50;;;8.00;;
77453;SDS011;66538;53.150;18.160;2023-03-01T14:45:15;17.80;;;9.80;;
77453;SDS011;66538;53.150;18.160;2023-03-01T14:47:41;15.10;;;9.10;;
77453;SDS011;66538;53.150;18.160;2023-03-01T14:52:51;22.60;;;10.90;;
77453;SDS011;66538;53.150;18.160;2023-03-01T14:55:38;17.60;;;9.70;;
77453;SDS011;66538;53.150;18.160;2023-03-01T14:58:12;17.00;;;9.50;;
77453;SDS011;66538;53.150;18.160;2023-03-01T15:00:49;20.80;;;11.20;;
77453;SDS011;66538;53.150;18.160;2023-03-01T15:03:32;14.60;;;7.80;;
77453;SDS011;66538;53.150;18.160;2023-03-01T15:06:03;15.50;;;9.30;;
77453;SDS011;66538;53.150;18.160;2023-03-01T15:08:33;16.40;;;8.40;;
77453;SDS011;66538;53.150;18.160;2023-03-01T15:11:03;15.10;;;8.60;;
77453;SDS011;66538;53.150;18.160;2023-03-01T15:13:39;19.90;;;10.90;;
77453;SDS011;66538;53.150;18.160;2023-03-01T15:16:08;21.70;;;11.20;;
77453;SDS011;66538;53.150;18.160;2023-03-01T15:18:38;17.90;;;8.40;;
77453;SDS011;66538;53.150;18.160;2023-03-01T15:21:24;11.60;;;6.20;;
77453;SDS011;66538;53.150;18.160;2023-03-01T15:23:57;10.50;;;5.80;;
77453;SDS011;66538;53.150;18.160;2023-03-01T15:26:37;14.50;;;8.80;;
77453;SDS011;66538;53.150;18.160;2023-03-01T15:29:10;17.80;;;8.90;;
77453;SDS011;66538;53.150;18.160;2023-03-01T15:31:54;17.70;;;8.70;;
77453;SDS011;66538;53.150;18.160;2023-03-01T15:34:32;12.80;;;6.40;;
77453;SDS011;66538;53.150;18.160;2023-03-01T15:37:04;17.00;;;8.50;;
77453;SDS011;66538;53.150;18.160;2023-03-01T15:39:41;10.80;;;5.90;;
77453;SDS011;66538;53.150;18.160;2023-03-01T15:42:13;15.80;;;7.10;;
77453;SDS011;66538;53.150;18.160;2023-03-01T15:47:39;16.70;;;7.90;;
77453;SDS011;66538;53.150;18.160;2023-03-01T15:50:18;13.90;;;7.50;;
77453;SDS011;66538;53.150;18.160;2023-03-01T15:52:47;15.10;;;6.80;;
77453;SDS011;66538;53.150;18.160;2023-03-01T15:57:46;15.70;;;7.10;;
77453;SDS011;66538;53.150;18.160;2023-03-01T16:00:14;18.60;;;8.20;;
77453;SDS011;66538;53.150;18.160;2023-03-01T16:02:42;11.30;;;6.60;;
77453;SDS011;66538;53.150;18.160;2023-03-01T16:05:28;12.90;;;6.10;;
77453;SDS011;66538;53.150;18.160;2023-03-01T16:07:57;12.90;;;5.60;;
77453;SDS011;66538;53.150;18.160;2023-03-01T16:10:24;12.40;;;5.60;;
77453;SDS011;66538;53.150;18.160;2023-03-01T16:12:51;9.70;;;5.20;;
77453;SDS011;66538;53.150;18.160;2023-03-01T16:15:19;11.70;;;4.70;;
77453;SDS011;66538;53.150;18.160;2023-03-01T16:17:48;9.70;;;4.60;;
77453;SDS011;66538;53.150;18.160;2023-03-01T16:20:21;9.00;;;4.30;;
77453;SDS011;66538;53.150;18.160;2023-03-01T16:22:48;11.40;;;4.60;;
77453;SDS011;66538;53.150;18.160;2023-03-01T16:25:16;9.30;;;4.60;;
77453;SDS011;66538;53.150;18.160;2023-03-01T16:27:47;12.80;;;4.40;;
77453;SDS011;66538;53.150;18.160;2023-03-01T16:30:17;9.70;;;4.50;;
77453;SDS011;66538;53.150;18.160;2023-03-01T16:32:46;9.50;;;4.20;;
77453;SDS011;66538;53.150;18.160;2023-03-01T16:35:14;12.00;;;4.50;;